MHLM/SAP METAR and TAF weather

Enter ICAO airport designator
Station Type Date Time Source
MHLM METAR 2021/07/26 13:00 UTC NOAA

MHLM 261300Z 24004KT 9999 FEW026 25/22 Q1013 A2992 NOSIG


Station Type Date Time Source
MHLM Decoded METAR 2021/07/26 13:00 UTC NOAA

La Mesa San Pedro Sula , Honduras (MHLM) 15-27N 087-56W 31M
Jul 26, 2021 - 09:00 AM EDT / 2021.07.26 1300 UTC
Wind: from the WSW (240 degrees) at 5 MPH (4 KT):0
Visibility: greater than 7 mile(s):0
Sky conditions: mostly clear
Temperature: 77 F (25 C)
Dew Point: 71 F (22 C)
Relative Humidity: 83%
Pressure (altimeter): 29.92 in. Hg (1013 hPa)
ob: MHLM 261300Z 24004KT 9999 FEW026 25/22 Q1013 A2992 NOSIG
cycle: 13

Station Type Date Time Source
MHLM TAF 2021/07/26 12:03 UTC NOAA

TAF MHLM 260900Z 2612/2712 22004KT 9999 FEW026 TX34/2620Z TN22/2712Z
BECMG 2617/2619 03012KT
BECMG 2701/2703 VRB02KT

Example: see airport list